Time;durP1;ratioP1;P1;durP2;ratioP2;P2;SDS_P1;SDS_P2;PMS_P1;PMS_P2;Temp;Humidity;BMP_temperature;BMP_pressure;BME280_temperature;BME280_humidity;BME280_pressure;Samples;Min_cycle;Max_cycle;Signal;HPM_P1;HPM_P2
2021/10/20 00:06:13;;;;;;;8.77;6.63;;;;;;;;;;21084374;28;20044;-69
2021/10/20 00:16:15;;;;;;;9.23;6.03;;;;;;;;;;21081542;28;20054;-69
2021/10/20 00:26:17;;;;;;;12.25;6.75;;;;;;;;;;21080741;28;20101;-69
2021/10/20 00:36:19;;;;;;;9.10;6.95;;;;;;;;;;21080933;28;20048;-69
2021/10/20 00:46:30;;;;;;;10.35;6.90;;;;;;;;;;21083937;28;20079;-69
2021/10/20 00:56:32;;;;;;;9.93;6.00;;;;;;;;;;21078465;28;20057;-69
2021/10/20 01:06:34;;;;;;;8.30;6.28;;;;;;;;;;21079162;28;20055;-69
2021/10/20 01:16:37;;;;;;;9.75;6.63;;;;;;;;;;21079125;28;20048;-69
2021/10/20 01:26:40;;;;;;;8.95;6.25;;;;;;;;;;21079088;28;20511;-70
2021/10/20 01:36:43;;;;;;;12.07;6.55;;;;;;;;;;21078085;28;20407;-71
2021/10/20 01:46:48;;;;;;;8.40;6.13;;;;;;;;;;21081699;28;20044;-71
2021/10/20 01:56:58;;;;;;;8.55;6.20;;;;;;;;;;21093160;28;20060;-70
2021/10/20 02:07:01;;;;;;;9.18;5.95;;;;;;;;;;21091529;28;20040;-71
2021/10/20 02:17:05;;;;;;;8.07;5.93;;;;;;;;;;21091120;28;20056;-69
2021/10/20 02:27:07;;;;;;;6.97;5.90;;;;;;;;;;21089978;28;20446;-72
2021/10/20 02:37:10;;;;;;;8.73;6.05;;;;;;;;;;21089179;28;20503;-71
2021/10/20 02:47:12;;;;;;;9.20;6.47;;;;;;;;;;21088650;28;20049;-69
2021/10/20 02:57:16;;;;;;;8.23;6.13;;;;;;;;;;21088036;28;20412;-69
2021/10/20 03:07:18;;;;;;;8.10;5.80;;;;;;;;;;21088285;28;20131;-71
2021/10/20 03:17:23;;;;;;;10.50;6.70;;;;;;;;;;21086399;28;20059;-69
2021/10/20 03:27:26;;;;;;;;;;;;;;;;;;21086078;28;20097;-67
2021/10/20 03:37:28;;;;;;;7.88;6.47;;;;;;;;;;21084549;28;20019;-68
2021/10/20 03:47:30;;;;;;;7.22;5.65;;;;;;;;;;21084880;28;20135;-71
2021/10/20 03:57:35;;;;;;;10.35;6.65;;;;;;;;;;21083026;28;20121;-67
2021/10/20 04:07:57;;;;;;;10.77;6.15;;;;;;;;;;21080253;28;20048;-69
2021/10/20 04:18:06;;;;;;;6.90;6.03;;;;;;;;;;21081429;28;20047;-69
2021/10/20 04:28:18;;;;;;;10.30;6.20;;;;;;;;;;21080994;28;20048;-69
2021/10/20 04:38:27;;;;;;;10.50;6.47;;;;;;;;;;21079924;28;20131;-70
2021/10/20 04:48:48;;;;;;;9.93;6.30;;;;;;;;;;21080739;28;20454;-69
2021/10/20 04:59:00;;;;;;;10.07;6.60;;;;;;;;;;21079783;28;20056;-69
2021/10/20 05:09:10;;;;;;;7.28;5.90;;;;;;;;;;21081328;28;20051;-69
2021/10/20 05:19:13;;;;;;;8.05;6.22;;;;;;;;;;21083101;28;20476;-70
2021/10/20 05:29:15;;;;;;;8.85;7.20;;;;;;;;;;21107696;28;20032;-70
2021/10/20 05:39:20;;;;;;;7.68;6.70;;;;;;;;;;21127025;28;20048;-70
2021/10/20 05:49:22;;;;;;;11.48;7.65;;;;;;;;;;21094345;28;20074;-69
2021/10/20 05:59:24;;;;;;;12.48;7.00;;;;;;;;;;21093008;28;20055;-68
2021/10/20 06:09:27;;;;;;;9.98;7.07;;;;;;;;;;21091993;28;20166;-69
2021/10/20 06:19:30;;;;;;;9.70;6.90;;;;;;;;;;21092149;28;20048;-69
2021/10/20 06:29:32;;;;;;;13.50;8.43;;;;;;;;;;21088261;28;20090;-69
2021/10/20 06:39:34;;;;;;;13.27;8.60;;;;;;;;;;21090029;28;20078;-69
2021/10/20 06:49:36;;;;;;;13.30;8.05;;;;;;;;;;21088801;28;20047;-69
2021/10/20 06:59:41;;;;;;;11.97;8.20;;;;;;;;;;21086440;28;20082;-67
2021/10/20 07:09:43;;;;;;;12.85;7.97;;;;;;;;;;21086727;28;20040;-69
2021/10/20 07:19:47;;;;;;;15.50;9.00;;;;;;;;;;21087321;28;20214;-68
2021/10/20 07:29:51;;;;;;;13.18;7.95;;;;;;;;;;21086015;28;20048;-69
2021/10/20 07:39:54;;;;;;;12.45;7.85;;;;;;;;;;21084979;28;20407;-68
2021/10/20 07:49:56;;;;;;;11.55;8.40;;;;;;;;;;21082897;28;20488;-69
2021/10/20 07:59:58;;;;;;;15.82;9.50;;;;;;;;;;21082625;28;20076;-70
2021/10/20 08:10:00;;;;;;;11.63;8.35;;;;;;;;;;21082931;28;20040;-67
2021/10/20 08:20:02;;;;;;;15.73;9.13;;;;;;;;;;21081624;28;20055;-68
2021/10/20 08:30:05;;;;;;;11.00;7.20;;;;;;;;;;21080948;28;20101;-69
2021/10/20 08:40:08;;;;;;;11.07;7.40;;;;;;;;;;21080833;28;20507;-69
2021/10/20 08:50:11;;;;;;;11.77;8.13;;;;;;;;;;21080471;28;20055;-69
2021/10/20 09:00:14;;;;;;;14.25;9.18;;;;;;;;;;21078728;28;20060;-69
2021/10/20 09:10:18;;;;;;;12.55;6.68;;;;;;;;;;21078834;28;20060;-71
2021/10/20 09:20:21;;;;;;;;;;;;;;;;;;21004637;28;20056;-71
2021/10/20 09:30:27;;;;;;;13.40;6.45;;;;;;;;;;20996201;28;19920;-69
2021/10/20 09:40:33;;;;;;;10.25;6.15;;;;;;;;;;21018091;28;20047;-63
2021/10/20 09:50:40;;;;;;;8.88;5.18;;;;;;;;;;21063219;28;20480;-67
2021/10/20 10:00:43;;;;;;;10.57;6.30;;;;;;;;;;21053603;28;20052;-65
2021/10/20 10:10:46;;;;;;;13.95;6.05;;;;;;;;;;21084596;28;20044;-64
2021/10/20 10:20:48;;;;;;;9.50;5.57;;;;;;;;;;21090862;28;20077;-59
2021/10/20 10:30:52;;;;;;;11.75;5.82;;;;;;;;;;21081621;28;20442;-59
2021/10/20 10:41:13;;;;;;;9.52;5.20;;;;;;;;;;21088937;28;20062;-60
2021/10/20 10:51:18;;;;;;;10.15;5.07;;;;;;;;;;21088131;28;20048;-60
2021/10/20 11:01:58;;;;;;;8.82;5.18;;;;;;;;;;21054080;28;20063;-69
2021/10/20 11:12:04;;;;;;;10.60;4.40;;;;;;;;;;20970106;28;20057;-60
2021/10/20 11:22:08;;;;;;;11.10;4.50;;;;;;;;;;20991492;28;20060;-58
2021/10/20 11:32:11;;;;;;;8.88;5.10;;;;;;;;;;20991785;28;20091;-65
2021/10/20 11:42:14;;;;;;;7.50;4.00;;;;;;;;;;21038171;28;20446;-55
2021/10/20 11:52:19;;;;;;;7.82;4.35;;;;;;;;;;21082787;28;20048;-61
2021/10/20 12:02:22;;;;;;;10.88;5.28;;;;;;;;;;21082592;28;20110;-75
2021/10/20 12:12:25;;;;;;;8.23;4.35;;;;;;;;;;21084311;28;20052;-67
2021/10/20 12:22:29;;;;;;;10.45;4.50;;;;;;;;;;21088926;28;20093;-59
2021/10/20 12:32:34;;;;;;;;;;;;;;;;;;21131082;28;20043;-60
2021/10/20 12:42:45;;;;;;;8.05;4.07;;;;;;;;;;21088036;28;19920;-60
2021/10/20 12:52:48;;;;;;;7.70;3.92;;;;;;;;;;21083666;28;20052;-75
2021/10/20 13:02:51;;;;;;;8.70;4.22;;;;;;;;;;21093715;28;20056;-64
2021/10/20 13:12:57;;;;;;;10.25;4.53;;;;;;;;;;21084142;28;20048;-61
2021/10/20 13:23:06;;;;;;;9.13;4.80;;;;;;;;;;21081228;28;20059;-60
2021/10/20 13:33:10;;;;;;;6.90;4.10;;;;;;;;;;21078944;28;20451;-77
2021/10/20 13:43:14;;;;;;;7.90;4.00;;;;;;;;;;21083284;28;20044;-62
2021/10/20 13:53:18;;;;;;;7.20;3.97;;;;;;;;;;21094332;28;20068;-61
2021/10/20 14:03:22;;;;;;;7.20;4.60;;;;;;;;;;21095297;28;20492;-60
2021/10/20 14:13:24;;;;;;;8.33;4.30;;;;;;;;;;21119016;28;20095;-61
2021/10/20 14:23:27;;;;;;;10.43;4.18;;;;;;;;;;21145346;28;20113;-60
2021/10/20 14:33:31;;;;;;;8.18;4.88;;;;;;;;;;21094060;28;20040;-79
2021/10/20 14:43:34;;;;;;;8.80;4.53;;;;;;;;;;21094174;28;20469;-67
2021/10/20 14:53:36;;;;;;;8.80;5.03;;;;;;;;;;21095015;28;20131;-62
2021/10/20 15:03:39;;;;;;;7.28;4.32;;;;;;;;;;21124504;28;20492;-61
2021/10/20 15:13:46;;;;;;;8.30;4.45;;;;;;;;;;21088440;28;20385;-74
2021/10/20 15:23:49;;;;;;;6.97;5.05;;;;;;;;;;21093069;28;20488;-66
2021/10/20 15:33:53;;;;;;;;;;;;;;;;;;21088317;28;20044;-60
2021/10/20 15:43:56;;;;;;;8.32;4.75;;;;;;;;;;21091383;28;19919;-60
2021/10/20 15:53:58;;;;;;;7.43;4.10;;;;;;;;;;21084900;28;20085;-60
2021/10/20 16:04:01;;;;;;;8.70;4.43;;;;;;;;;;21081448;28;20113;-60
2021/10/20 16:14:04;;;;;;;6.75;4.75;;;;;;;;;;21081952;28;20476;-71
2021/10/20 16:24:06;;;;;;;8.23;4.53;;;;;;;;;;21081594;28;20404;-67
2021/10/20 16:34:08;;;;;;;8.00;4.83;;;;;;;;;;21080784;28;20044;-59
2021/10/20 16:44:12;;;;;;;6.72;4.80;;;;;;;;;;21079754;28;20435;-57
2021/10/20 16:54:14;;;;;;;7.77;4.63;;;;;;;;;;21079209;28;20054;-62
2021/10/20 17:04:16;;;;;;;7.63;4.67;;;;;;;;;;21078396;28;20176;-58
2021/10/20 17:14:19;;;;;;;7.88;5.10;;;;;;;;;;21076565;28;20105;-53
2021/10/20 17:24:21;;;;;;;9.90;4.87;;;;;;;;;;21092549;28;20097;-53
2021/10/20 17:34:23;;;;;;;9.75;4.78;;;;;;;;;;21091735;28;20055;-51
2021/10/20 17:44:25;;;;;;;6.78;4.85;;;;;;;;;;21088929;28;20051;-58
2021/10/20 17:54:27;;;;;;;8.00;4.88;;;;;;;;;;21090419;28;20044;-52
2021/10/20 18:04:29;;;;;;;8.07;5.10;;;;;;;;;;21091050;28;20052;-52
2021/10/20 18:14:32;;;;;;;7.72;5.28;;;;;;;;;;21088819;28;20480;-56
2021/10/20 18:24:34;;;;;;;8.37;4.70;;;;;;;;;;21087814;28;20052;-51
2021/10/20 18:34:36;;;;;;;9.88;4.93;;;;;;;;;;21086213;28;20068;-53
2021/10/20 18:44:38;;;;;;;18.33;4.93;;;;;;;;;;21085795;28;20487;-58
2021/10/20 18:54:40;;;;;;;8.50;4.47;;;;;;;;;;21086966;28;20102;-57
2021/10/20 19:04:42;;;;;;;7.00;5.18;;;;;;;;;;21083778;28;20051;-58
2021/10/20 19:14:46;;;;;;;8.00;4.80;;;;;;;;;;21084520;28;20044;-58
2021/10/20 19:24:48;;;;;;;9.25;5.15;;;;;;;;;;21084026;28;20455;-59
2021/10/20 19:34:50;;;;;;;9.13;4.90;;;;;;;;;;21083303;28;20051;-59
2021/10/20 19:44:52;;;;;;;6.63;4.83;;;;;;;;;;21083155;28;20053;-61
2021/10/20 19:54:55;;;;;;;8.10;4.20;;;;;;;;;;21083694;28;20499;-58
2021/10/20 20:04:56;;;;;;;9.52;5.20;;;;;;;;;;21082828;28;20052;-60
2021/10/20 20:14:58;;;;;;;8.20;4.78;;;;;;;;;;21081472;28;20048;-59
2021/10/20 20:25:00;;;;;;;7.40;5.03;;;;;;;;;;21081343;28;20396;-61
2021/10/20 20:35:02;;;;;;;9.48;4.82;;;;;;;;;;21081389;28;20131;-57
2021/10/20 20:45:05;;;;;;;6.82;4.30;;;;;;;;;;21078088;28;20052;-55
2021/10/20 20:55:08;;;;;;;7.90;4.30;;;;;;;;;;21078576;28;20052;-62
2021/10/20 21:05:11;;;;;;;7.00;4.90;;;;;;;;;;21076959;28;20048;-58
2021/10/20 21:15:13;;;;;;;7.60;4.57;;;;;;;;;;21076670;28;20044;-57
2021/10/20 21:25:16;;;;;;;11.05;4.50;;;;;;;;;;21077185;28;20047;-60
2021/10/20 21:35:18;;;;;;;5.68;4.55;;;;;;;;;;21076551;28;20060;-59
2021/10/20 21:45:20;;;;;;;8.43;5.35;;;;;;;;;;21077845;28;20415;-58
2021/10/20 21:55:22;;;;;;;7.38;4.82;;;;;;;;;;21077316;28;20048;-60
2021/10/20 22:05:25;;;;;;;7.78;5.50;;;;;;;;;;21082437;28;20055;-59
2021/10/20 22:15:27;;;;;;;6.93;5.35;;;;;;;;;;21091919;28;20047;-59
2021/10/20 22:25:28;;;;;;;8.20;5.85;;;;;;;;;;21091766;28;20060;-58
2021/10/20 22:35:31;;;;;;;8.50;4.68;;;;;;;;;;21090098;28;20044;-57
2021/10/20 22:45:32;;;;;;;5.68;4.15;;;;;;;;;;21089142;28;20131;-61
2021/10/20 22:55:34;;;;;;;5.45;3.97;;;;;;;;;;21088957;28;20515;-58
2021/10/20 23:05:36;;;;;;;5.05;3.42;;;;;;;;;;21087838;28;20048;-58
2021/10/20 23:15:38;;;;;;;10.60;3.90;;;;;;;;;;21086557;28;20393;-57
2021/10/20 23:25:39;;;;;;;5.15;3.88;;;;;;;;;;21087084;28;20084;-57
2021/10/20 23:35:42;;;;;;;4.47;3.13;;;;;;;;;;21086337;28;20511;-58
2021/10/20 23:45:43;;;;;;;4.70;3.13;;;;;;;;;;21084695;28;20131;-58
2021/10/20 23:55:45;;;;;;;3.78;2.70;;;;;;;;;;21085168;28;20048;-58
